createdAt,value
2022-08-22T00:00:59.067Z,1.70
2022-08-22T00:03:15.720Z,1.77
2022-08-22T00:03:42.611Z,1.73
2022-08-22T00:06:37.683Z,1.83
2022-08-22T00:09:29.583Z,1.87
2022-08-22T00:12:22.663Z,1.90
2022-08-22T00:15:03.814Z,1.87
2022-08-22T00:17:33.951Z,2.00
2022-08-22T00:20:30.049Z,1.70
2022-08-22T00:23:10.317Z,1.77
2022-08-22T00:25:49.691Z,2.10
2022-08-22T00:28:22.882Z,2.03
2022-08-22T00:30:58.066Z,1.80
2022-08-22T00:33:32.582Z,1.60
2022-08-22T00:36:09.517Z,1.90
2022-08-22T00:38:44.466Z,2.03
2022-08-22T00:41:30.211Z,2.00
2022-08-22T00:44:00.725Z,1.60
2022-08-22T00:46:30.789Z,1.90
2022-08-22T00:49:29.169Z,1.87
2022-08-22T00:52:29.634Z,1.60
2022-08-22T00:55:11.993Z,1.83
2022-08-22T00:57:59.928Z,1.63
2022-08-22T01:00:29.521Z,1.73
2022-08-22T01:03:17.792Z,1.63
2022-08-22T01:06:11.896Z,1.50
2022-08-22T01:08:50.127Z,2.27
2022-08-22T01:11:23.386Z,3.07
2022-08-22T01:14:00.286Z,1.70
2022-08-22T01:16:55.749Z,2.10
2022-08-22T01:20:02.835Z,2.00
2022-08-22T01:23:04.190Z,1.80
2022-08-22T01:26:04.702Z,2.10
2022-08-22T01:28:48.122Z,1.93
2022-08-22T01:31:46.556Z,1.90
2022-08-22T01:34:25.926Z,1.83
2022-08-22T01:37:11.917Z,1.90
2022-08-22T01:40:00.664Z,2.50
2022-08-22T01:43:01.998Z,2.23
2022-08-22T01:45:53.344Z,2.10
2022-08-22T01:48:24.367Z,2.10
2022-08-22T01:51:11.862Z,1.80
2022-08-22T01:53:53.449Z,2.00
2022-08-22T01:56:23.934Z,2.10
2022-08-22T01:59:11.484Z,2.43
2022-08-22T02:01:57.758Z,1.93
2022-08-22T02:05:02.938Z,2.07
2022-08-22T02:07:53.160Z,1.70
2022-08-22T02:10:28.436Z,2.10
2022-08-22T02:13:12.849Z,1.70
2022-08-22T02:15:50.042Z,2.03
2022-08-22T02:18:28.870Z,1.90
2022-08-22T02:21:08.720Z,2.00
2022-08-22T02:23:43.809Z,1.67
2022-08-22T02:26:37.543Z,1.77
2022-08-22T02:29:17.087Z,1.97
2022-08-22T02:31:55.486Z,2.27
2022-08-22T02:34:50.627Z,2.00
2022-08-22T02:37:21.920Z,1.80
2022-08-22T02:40:01.320Z,2.00
2022-08-22T02:42:43.147Z,1.90
2022-08-22T02:45:30.079Z,2.17
2022-08-22T02:48:27.685Z,1.47
2022-08-22T02:51:11.371Z,2.00
2022-08-22T02:53:54.336Z,1.80
2022-08-22T02:56:33.217Z,2.10
2022-08-22T02:59:15.585Z,1.73
2022-08-22T03:01:46.349Z,1.70
2022-08-22T03:04:31.998Z,1.80
2022-08-22T03:07:18.350Z,1.73
2022-08-22T03:09:51.571Z,2.30
2022-08-22T03:12:28.709Z,1.40
2022-08-22T03:15:34.110Z,1.80
2022-08-22T03:18:32.165Z,2.10
2022-08-22T03:21:15.505Z,2.00
2022-08-22T03:23:50.113Z,1.80
2022-08-22T03:26:48.981Z,1.67
2022-08-22T03:29:37.366Z,2.23
2022-08-22T03:32:19.032Z,1.80
2022-08-22T03:35:03.689Z,1.77
2022-08-22T03:37:40.401Z,1.67
2022-08-22T03:40:19.857Z,1.90
2022-08-22T03:43:01.659Z,1.97
2022-08-22T03:45:48.565Z,2.20
2022-08-22T03:48:30.989Z,1.67
2022-08-22T03:51:18.746Z,2.10
2022-08-22T03:53:46.096Z,1.57
2022-08-22T03:56:32.401Z,2.07
2022-08-22T03:59:42.774Z,2.03
2022-08-22T04:02:43.143Z,1.87
2022-08-22T04:05:36.108Z,2.10
2022-08-22T04:08:53.425Z,1.80
2022-08-22T04:11:55.807Z,1.90
2022-08-22T04:14:27.733Z,1.80
2022-08-22T04:17:25.538Z,1.93
2022-08-22T04:20:11.479Z,1.80
2022-08-22T04:23:07.849Z,1.77
2022-08-22T04:25:53.345Z,1.87
2022-08-22T04:28:49.150Z,1.80
2022-08-22T04:31:24.818Z,2.00
2022-08-22T04:34:00.606Z,1.70
2022-08-22T04:36:33.218Z,1.90
2022-08-22T04:39:23.389Z,2.10
2022-08-22T04:42:00.676Z,1.90
2022-08-22T04:44:43.755Z,1.77
2022-08-22T04:47:25.587Z,1.90
2022-08-22T04:49:59.610Z,1.93
2022-08-22T04:52:40.522Z,1.73
2022-08-22T04:55:33.844Z,2.30
2022-08-22T04:58:07.167Z,1.93
2022-08-22T05:01:04.073Z,2.30
2022-08-22T05:03:36.624Z,1.80
2022-08-22T05:06:06.064Z,2.27
2022-08-22T05:08:37.110Z,2.10
2022-08-22T05:11:09.663Z,1.80
2022-08-22T05:13:53.526Z,1.63
2022-08-22T05:16:26.554Z,2.03
2022-08-22T05:19:31.156Z,2.07
2022-08-22T05:21:59.549Z,1.60
2022-08-22T05:24:38.609Z,2.00
2022-08-22T05:27:26.096Z,2.10
2022-08-22T05:30:02.117Z,2.10
2022-08-22T05:32:36.563Z,1.80
2022-08-22T05:35:08.562Z,1.80
2022-08-22T05:37:44.154Z,2.77
2022-08-22T05:40:20.546Z,2.17
2022-08-22T05:42:48.478Z,2.10
2022-08-22T05:45:19.240Z,1.80
2022-08-22T05:47:50.803Z,1.90
2022-08-22T05:50:43.108Z,1.90
2022-08-22T05:53:29.958Z,2.43
2022-08-22T05:56:00.062Z,2.00
2022-08-22T05:58:46.145Z,2.00
2022-08-22T06:01:42.690Z,1.90
2022-08-22T06:04:28.645Z,2.23
2022-08-22T06:07:14.799Z,2.37
2022-08-22T06:09:48.127Z,1.70
2022-08-22T06:12:24.641Z,1.90
2022-08-22T06:15:16.967Z,1.87
2022-08-22T06:17:57.938Z,1.60
2022-08-22T06:20:47.660Z,2.17
2022-08-22T06:23:21.461Z,1.90
2022-08-22T06:25:51.722Z,1.80
2022-08-22T06:28:27.687Z,1.77
2022-08-22T06:31:01.272Z,1.70
2022-08-22T06:33:32.208Z,1.50
2022-08-22T06:36:24.904Z,1.97
2022-08-22T06:38:56.166Z,2.17
2022-08-22T06:41:27.885Z,2.20
2022-08-22T06:43:57.006Z,1.73
2022-08-22T06:46:28.901Z,2.30
2022-08-22T06:49:00.405Z,2.33
2022-08-22T06:51:29.374Z,2.20
2022-08-22T06:54:03.922Z,1.80
2022-08-22T06:56:40.331Z,1.90
2022-08-22T06:59:17.796Z,2.23
2022-08-22T07:01:53.472Z,2.23
2022-08-22T07:04:26.549Z,2.10
2022-08-22T07:06:57.061Z,2.30
2022-08-22T07:09:34.625Z,2.10
2022-08-22T07:12:19.406Z,2.30
2022-08-22T07:14:52.578Z,1.90
2022-08-22T07:17:25.378Z,1.90
2022-08-22T07:20:19.035Z,2.30
2022-08-22T07:22:55.241Z,1.73
2022-08-22T07:25:24.561Z,1.90
2022-08-22T07:28:19.962Z,2.10
2022-08-22T07:31:10.637Z,2.17
2022-08-22T07:33:41.755Z,1.87
2022-08-22T07:36:47.969Z,2.23
2022-08-22T07:39:38.343Z,2.40
2022-08-22T07:42:21.598Z,2.07
2022-08-22T07:45:06.213Z,2.00
2022-08-22T07:47:52.568Z,2.17
2022-08-22T07:50:26.652Z,2.30
2022-08-22T07:53:01.318Z,2.13
2022-08-22T07:55:28.944Z,2.10
2022-08-22T07:58:02.025Z,1.90
2022-08-22T08:00:32.517Z,2.65
2022-08-22T08:03:05.640Z,1.95
2022-08-22T08:05:36.947Z,2.55
2022-08-22T08:08:15.748Z,2.90
2022-08-22T08:10:43.618Z,2.70
2022-08-22T08:13:19.241Z,2.08
2022-08-22T08:15:47.184Z,2.35
2022-08-22T08:18:21.748Z,2.13
2022-08-22T08:21:02.478Z,2.65
2022-08-22T08:23:41.618Z,3.13
2022-08-22T08:26:15.831Z,2.45
2022-08-22T08:28:47.640Z,2.38
2022-08-22T08:31:25.974Z,2.70
2022-08-22T08:34:07.677Z,2.83
2022-08-22T08:36:53.462Z,2.75
2022-08-22T08:39:38.027Z,2.42
2022-08-22T08:43:04.490Z,2.40
2022-08-22T08:46:14.871Z,3.38
2022-08-22T08:49:13.178Z,2.72
2022-08-22T08:52:25.614Z,3.25
2022-08-22T08:54:59.542Z,3.28
2022-08-22T08:57:54.667Z,3.30
2022-08-22T09:00:42.041Z,3.13
2022-08-22T09:03:36.273Z,3.00
2022-08-22T09:06:30.302Z,2.85
2022-08-22T09:09:31.729Z,2.70
2022-08-22T09:12:11.170Z,3.30
2022-08-22T09:15:14.157Z,3.10
2022-08-22T09:17:44.671Z,3.00
2022-08-22T09:20:30.545Z,3.05
2022-08-22T09:23:28.548Z,2.95
2022-08-22T09:26:19.228Z,2.80
2022-08-22T09:29:07.274Z,3.17
2022-08-22T09:31:52.067Z,2.88
2022-08-22T09:34:30.004Z,2.88
2022-08-22T09:37:20.676Z,3.60
2022-08-22T09:40:09.829Z,3.00
2022-08-22T09:43:01.984Z,2.70
2022-08-22T09:45:47.919Z,2.90
2022-08-22T09:48:50.175Z,2.45
2022-08-22T09:51:41.280Z,3.10
2022-08-22T09:54:31.462Z,2.53
2022-08-22T09:57:13.872Z,2.50
2022-08-22T10:00:02.877Z,2.85
2022-08-22T10:02:45.953Z,2.67
2022-08-22T10:05:40.981Z,2.40
2022-08-22T10:08:33.619Z,2.80
2022-08-22T10:11:09.002Z,2.70
2022-08-22T10:13:43.372Z,2.40
2022-08-22T10:16:26.011Z,2.65
2022-08-22T10:19:26.280Z,2.60
2022-08-22T10:22:15.523Z,2.42
2022-08-22T10:25:07.463Z,2.20
2022-08-22T10:27:49.898Z,2.90
2022-08-22T10:30:21.652Z,2.05
2022-08-22T10:33:19.862Z,2.92
2022-08-22T10:35:50.541Z,2.15
2022-08-22T10:38:47.489Z,2.55
2022-08-22T10:41:39.049Z,2.75
2022-08-22T10:44:22.221Z,2.20
2022-08-22T10:46:53.622Z,2.72
2022-08-22T10:49:32.424Z,2.40
2022-08-22T10:52:24.009Z,2.28
2022-08-22T10:54:57.775Z,2.33
2022-08-22T10:57:44.443Z,2.13
2022-08-22T11:00:22.777Z,2.10
2022-08-22T11:03:02.725Z,2.15
2022-08-22T11:05:41.097Z,2.13
2022-08-22T11:08:48.015Z,2.58
2022-08-22T11:11:46.033Z,2.40
2022-08-22T11:14:56.419Z,2.13
2022-08-22T11:18:01.938Z,2.53
2022-08-22T11:20:56.711Z,2.53
2022-08-22T11:23:55.124Z,2.35
2022-08-22T11:26:38.303Z,2.45
2022-08-22T11:30:06.246Z,2.17
2022-08-22T11:32:59.996Z,2.38
2022-08-22T11:35:47.928Z,2.08
2022-08-22T11:38:47.513Z,2.22
2022-08-22T11:41:26.705Z,2.10
2022-08-22T11:44:06.312Z,2.13
2022-08-22T11:46:39.286Z,2.38
2022-08-22T11:49:26.734Z,2.05
2022-08-22T11:52:04.765Z,1.95
2022-08-22T11:54:59.714Z,2.65
2022-08-22T11:57:44.953Z,2.10
2022-08-22T12:00:20.813Z,2.85
2022-08-22T12:03:00.596Z,2.47
2022-08-22T12:05:36.554Z,1.67
2022-08-22T12:08:11.871Z,2.58
2022-08-22T12:11:08.642Z,2.20
2022-08-22T12:14:03.918Z,2.30
2022-08-22T12:16:47.322Z,2.53
2022-08-22T12:19:23.039Z,2.40
2022-08-22T12:22:09.386Z,2.40
2022-08-22T12:24:51.135Z,2.45
2022-08-22T12:27:29.459Z,2.58
2022-08-22T12:30:20.397Z,2.10
2022-08-22T12:33:23.210Z,2.65
2022-08-22T12:36:17.980Z,2.33
2022-08-22T12:39:24.313Z,1.92
2022-08-22T12:42:13.113Z,2.25
2022-08-22T12:44:59.231Z,2.15
2022-08-22T12:47:48.883Z,2.13
2022-08-22T12:50:35.416Z,2.10
2022-08-22T12:53:20.861Z,2.10
2022-08-22T12:56:12.782Z,2.55
2022-08-22T12:59:05.767Z,2.13
2022-08-22T13:01:43.693Z,2.25
2022-08-22T13:04:32.511Z,2.25
2022-08-22T13:07:23.206Z,2.40
2022-08-22T13:09:57.649Z,2.10
2022-08-22T13:12:39.947Z,1.98
2022-08-22T13:15:20.894Z,1.80
2022-08-22T13:17:53.501Z,2.05
2022-08-22T13:20:41.562Z,2.20
2022-08-22T13:23:23.403Z,1.95
2022-08-22T13:26:07.642Z,2.25
2022-08-22T13:29:22.067Z,2.10
2022-08-22T13:31:53.177Z,2.08
2022-08-22T13:34:44.929Z,1.80
2022-08-22T13:37:17.781Z,1.77
2022-08-22T13:39:50.429Z,2.00
2022-08-22T13:42:29.908Z,1.95
2022-08-22T13:45:03.119Z,2.22
2022-08-22T13:47:35.778Z,2.13
2022-08-22T13:50:12.409Z,2.30
2022-08-22T13:52:55.044Z,2.30
2022-08-22T13:55:37.390Z,2.22
2022-08-22T13:58:22.921Z,2.20
2022-08-22T14:01:35.968Z,2.10
2022-08-22T14:04:32.044Z,2.30
2022-08-22T14:07:03.739Z,2.08
2022-08-22T14:09:54.551Z,1.97
2022-08-22T14:12:51.002Z,1.67
2022-08-22T14:15:24.523Z,2.40
2022-08-22T14:18:03.391Z,2.00
2022-08-22T14:20:33.492Z,1.85
2022-08-22T14:23:10.482Z,2.30
2022-08-22T14:25:40.461Z,2.30
2022-08-22T14:28:28.077Z,2.22
2022-08-22T14:31:04.212Z,2.17
2022-08-22T14:33:36.982Z,2.20
2022-08-22T14:36:17.222Z,2.10
2022-08-22T14:38:53.389Z,1.90
2022-08-22T14:41:52.866Z,1.90
2022-08-22T14:44:38.818Z,2.27
2022-08-22T14:47:54.578Z,2.60
2022-08-22T14:50:11.204Z,2.30
2022-08-22T14:52:44.109Z,2.05
2022-08-22T14:55:20.440Z,1.90
2022-08-22T14:57:57.723Z,2.55
2022-08-22T15:00:47.542Z,1.70
2022-08-22T15:03:25.965Z,2.13
2022-08-22T15:06:11.622Z,2.00
2022-08-22T15:08:46.320Z,2.00
2022-08-22T15:11:22.874Z,2.00
2022-08-22T15:14:13.710Z,2.10
2022-08-22T15:16:46.214Z,1.90
2022-08-22T15:19:44.449Z,1.92
2022-08-22T15:22:25.762Z,2.13
2022-08-22T15:25:17.300Z,2.25
2022-08-22T15:28:14.205Z,2.15
2022-08-22T15:31:03.478Z,2.42
2022-08-22T15:33:40.079Z,2.20
2022-08-22T15:36:19.881Z,2.20
2022-08-22T15:38:51.473Z,2.42
2022-08-22T15:41:22.883Z,2.13
2022-08-22T15:44:03.645Z,1.90
2022-08-22T15:46:43.556Z,2.28
2022-08-22T15:49:19.968Z,1.87
2022-08-22T15:51:53.260Z,2.05
2022-08-22T15:54:30.229Z,2.00
2022-08-22T15:57:25.056Z,2.00
2022-08-22T15:59:59.402Z,2.15
2022-08-22T16:02:42.888Z,1.83
2022-08-22T16:05:10.515Z,1.90
2022-08-22T16:07:50.573Z,2.22
2022-08-22T16:10:24.158Z,2.28
2022-08-22T16:13:38.254Z,2.10
2022-08-22T16:16:24.656Z,2.72
2022-08-22T16:18:51.988Z,2.53
2022-08-22T16:21:22.338Z,2.50
2022-08-22T16:23:49.903Z,1.65
2022-08-22T16:26:18.838Z,2.05
2022-08-22T16:28:59.265Z,2.20
2022-08-22T16:31:29.055Z,1.93
2022-08-22T16:34:18.160Z,2.17
2022-08-22T16:36:51.633Z,2.00
2022-08-22T16:39:22.021Z,2.15
2022-08-22T16:42:09.601Z,2.25
2022-08-22T16:44:55.814Z,2.15
2022-08-22T16:47:54.544Z,2.22
2022-08-22T16:50:36.811Z,2.00
2022-08-22T16:53:10.036Z,2.00
2022-08-22T16:55:42.754Z,2.40
2022-08-22T16:58:57.513Z,2.25
2022-08-22T17:01:54.940Z,2.10
2022-08-22T17:04:37.901Z,2.03
2022-08-22T17:07:27.339Z,1.73
2022-08-22T17:10:12.332Z,2.42
2022-08-22T17:12:58.338Z,1.88
2022-08-22T17:16:07.400Z,2.10
2022-08-22T17:18:43.909Z,2.20
2022-08-22T17:21:40.914Z,2.28
2022-08-22T17:24:36.315Z,1.75
2022-08-22T17:27:30.205Z,2.10
2022-08-22T17:30:14.505Z,1.88
2022-08-22T17:32:41.800Z,2.17
2022-08-22T17:35:33.746Z,2.08
2022-08-22T17:38:33.598Z,1.92
2022-08-22T17:41:31.970Z,2.28
2022-08-22T17:44:16.362Z,2.88
2022-08-22T17:46:51.333Z,2.40
2022-08-22T17:49:24.647Z,2.85
2022-08-22T17:51:58.817Z,3.00
2022-08-22T17:54:35.600Z,2.28
2022-08-22T17:57:10.315Z,2.05
2022-08-22T17:59:49.970Z,2.50
2022-08-22T18:02:39.258Z,2.50
2022-08-22T18:05:12.784Z,2.20
2022-08-22T18:07:53.705Z,2.10
2022-08-22T18:10:30.215Z,2.03
2022-08-22T18:13:11.545Z,2.35
2022-08-22T18:15:49.396Z,2.40
2022-08-22T18:18:28.146Z,3.28
2022-08-22T18:21:11.591Z,4.00
2022-08-22T18:23:44.297Z,3.90
2022-08-22T18:26:30.793Z,3.83
2022-08-22T18:29:09.106Z,3.53
2022-08-22T18:31:45.359Z,3.07
2022-08-22T18:34:22.861Z,2.85
2022-08-22T18:37:17.559Z,2.70
2022-08-22T18:39:56.585Z,3.00
2022-08-22T18:42:30.239Z,2.63
2022-08-22T18:44:57.956Z,2.23
2022-08-22T18:47:33.012Z,2.80
2022-08-22T18:50:22.771Z,2.60
2022-08-22T18:52:55.915Z,2.93
2022-08-22T18:55:39.839Z,2.57
2022-08-22T18:58:47.922Z,2.47
2022-08-22T19:01:41.351Z,2.90
2022-08-22T19:05:10.886Z,2.90
2022-08-22T19:08:21.721Z,2.93
2022-08-22T19:11:23.775Z,2.97
2022-08-22T19:14:14.059Z,2.90
2022-08-22T19:17:19.432Z,2.47
2022-08-22T19:20:44.826Z,3.00
2022-08-22T19:24:03.292Z,3.00
2022-08-22T19:27:10.890Z,2.90
2022-08-22T19:29:38.269Z,3.03
2022-08-22T19:32:12.913Z,3.33
2022-08-22T19:34:46.988Z,9.67
2022-08-22T19:37:32.101Z,13.87
2022-08-22T19:40:43.339Z,4.13
2022-08-22T19:43:26.435Z,3.30
2022-08-22T19:45:56.063Z,4.07
2022-08-22T19:48:31.482Z,3.50
2022-08-22T19:51:08.920Z,3.17
2022-08-22T19:53:51.007Z,3.10
2022-08-22T19:56:43.462Z,3.90
2022-08-22T19:59:33.405Z,3.03
2022-08-22T20:02:26.005Z,3.23
2022-08-22T20:05:01.411Z,3.83
2022-08-22T20:07:34.110Z,3.60
2022-08-22T20:10:27.544Z,3.93
2022-08-22T20:13:05.333Z,3.67
2022-08-22T20:16:07.214Z,3.93
2022-08-22T20:19:05.129Z,3.63
2022-08-22T20:21:52.794Z,3.93
2022-08-22T20:24:32.351Z,3.50
2022-08-22T20:27:13.990Z,3.70
2022-08-22T20:29:49.055Z,3.60
2022-08-22T20:32:21.104Z,3.47
2022-08-22T20:34:54.870Z,3.40
2022-08-22T20:37:45.523Z,3.80
2022-08-22T20:40:54.564Z,3.63
2022-08-22T20:43:43.676Z,3.67
2022-08-22T20:46:36.328Z,3.20
2022-08-22T20:49:05.125Z,3.07
2022-08-22T20:51:34.176Z,3.47
2022-08-22T20:54:15.577Z,3.20
2022-08-22T20:56:53.057Z,3.07
2022-08-22T20:59:35.626Z,3.00
2022-08-22T21:02:21.657Z,2.90
2022-08-22T21:04:57.103Z,3.00
2022-08-22T21:07:46.837Z,3.57
2022-08-22T21:10:46.486Z,2.97
2022-08-22T21:13:23.419Z,2.90
2022-08-22T21:15:53.587Z,3.00
2022-08-22T21:18:45.783Z,14.90
2022-08-22T21:21:20.712Z,10.27
2022-08-22T21:23:51.261Z,6.60
2022-08-22T21:26:45.110Z,6.33
2022-08-22T21:29:12.481Z,4.10
2022-08-22T21:31:49.666Z,2.30
2022-08-22T21:34:22.040Z,3.10
2022-08-22T21:36:57.792Z,2.43
2022-08-22T21:39:32.702Z,2.90
2022-08-22T21:42:00.432Z,2.50
2022-08-22T21:44:30.926Z,2.73
2022-08-22T21:47:19.106Z,2.40
2022-08-22T21:50:12.680Z,2.70
2022-08-22T21:53:00.243Z,2.80
2022-08-22T21:55:34.542Z,2.80
2022-08-22T21:58:36.825Z,2.80
2022-08-22T22:01:27.384Z,2.70
2022-08-22T22:03:58.863Z,2.80
2022-08-22T22:06:45.203Z,2.60
2022-08-22T22:09:15.210Z,2.83
2022-08-22T22:11:42.860Z,2.80
2022-08-22T22:14:10.352Z,3.07
2022-08-22T22:16:38.431Z,2.97
2022-08-22T22:19:08.682Z,2.70
2022-08-22T22:21:38.544Z,2.90
2022-08-22T22:24:06.140Z,3.10
2022-08-22T22:26:33.939Z,2.97
2022-08-22T22:29:02.819Z,2.70
2022-08-22T22:31:31.583Z,2.50
2022-08-22T22:34:01.275Z,2.70
2022-08-22T22:36:28.825Z,2.40
2022-08-22T22:38:56.581Z,2.40
2022-08-22T22:41:25.615Z,2.53
2022-08-22T22:43:54.956Z,2.50
2022-08-22T22:46:23.061Z,2.40
2022-08-22T22:48:50.620Z,2.13
2022-08-22T22:51:18.077Z,2.83
2022-08-22T22:53:46.112Z,2.63
2022-08-22T22:56:16.250Z,2.77
2022-08-22T22:58:44.548Z,2.40
2022-08-22T23:01:15.711Z,3.30
2022-08-22T23:03:44.146Z,2.00
2022-08-22T23:06:17.699Z,2.50
2022-08-22T23:08:46.471Z,2.83
2022-08-22T23:11:26.032Z,2.63
2022-08-22T23:13:53.842Z,2.70
2022-08-22T23:16:27.882Z,2.90
2022-08-22T23:18:56.027Z,2.60
2022-08-22T23:21:29.233Z,2.70
2022-08-22T23:23:58.392Z,2.97
2022-08-22T23:26:26.250Z,2.40
2022-08-22T23:28:53.644Z,2.40
2022-08-22T23:31:36.758Z,2.80
2022-08-22T23:34:10.940Z,2.47
2022-08-22T23:36:39.970Z,2.93
2022-08-22T23:39:09.227Z,2.60
2022-08-22T23:41:37.389Z,2.73
2022-08-22T23:44:06.881Z,2.50
2022-08-22T23:46:37.113Z,2.43
2022-08-22T23:49:06.396Z,2.80
2022-08-22T23:51:33.939Z,2.50
2022-08-22T23:54:02.054Z,2.57
2022-08-22T23:56:34.240Z,2.60
2022-08-22T23:59:05.685Z,2.63
